Vancouver, British Columbia

04:27 AM PDT on Juli 19, 2018 (GMT -0700)
Burkeville | | Change Station

Elev 6 ft 49.19 °N, 123.15 °W | Updated 5 seconds ago

Mostly Cloudy
Mestadels molnigt
57.4 °F
Feels Like 57.4 °F
N
1
Vind Växlande Vind from O/SO
Gusts 4.0 miles/tim

Idag
High -- | Low -- °F
--% Chance of Precip.
Yesterday
High -- | Low -- °F
Precip. -- tum
Lufttryck 30.11 tum
Sikt 30.0 miles
Molnigt Mestadels molnigt 5300 ft
Mestadels molnigt 6400 ft
Daggpunkt 52 °F
Luftfuktighet 83%
Rainfall 0.00 tum
Snow Depth Not available.
5:28 AM 9:08 PM
Första kvarteret, 46% visible
METAR CYVR 191100Z 09008KT 30SM BKN053 BKN064 14/11 A3011 RMK SC5SC1 SLP196
Lufttryck 30.11 tum
Sikt 30.0 miles
Molnigt Mestadels molnigt 5300 ft
Mestadels molnigt 6400 ft
Daggpunkt 52 °F
Luftfuktighet 83%
Rainfall 0.00 tum
Snow Depth Not available.
5:28 AM 9:08 PM
Första kvarteret, 46% visible
METAR CYVR 191100Z 09008KT 30SM BKN053 BKN064 14/11 A3011 RMK SC5SC1 SLP196

Get Severe Weather Alerts

Thanks for signing up!

Be on the lookout for a verification email in your inbox.

You'll start receiving the daily forecast at 6 AM.

×

10-Day Weather Forecast

Almanac

Astronomi

Jul. 19, 2018 Rise Set
Actual Time
Civil Twilight
Nautical Twilight
Astronomical Twilight
Månen
Length Of Visible Light
Dagens längd
Tomorrow will be .
, % of the Moon is Illuminated

Today's Extremes

Country Highs Country Lows

Community

WunderPhotos

Category 6

Welcome to Category 6. This is the collective home for Weather Underground's featured writeups by Dr. Jeff Masters (right), Bob Henson (left), Chris Burt, and other regular contributors.

Nearby

Air Quality

  Air Quality AQ Index Pollutant
Not available.

Snödjup

Station Depth Elevation

Earthquake Activity

Stad Distance Mag. Time & Date
Minimum magnitude displayed is 2.5.

Coastal Water Temperatures

Plats Temperatur

Stations

Nearby Weather Stations

Station Location Temp Vindavkylning Daggpunkt Luftfuktighet Vind Precip. Elev Uppdaterad Type
                   

Watches & Warnings

There are currently no watches in effect.